createdAt,value
2023-11-19T04:32:10.215Z,11.03
2023-11-19T04:34:38.616Z,11.06
2023-11-19T04:39:35.887Z,11.25
2023-11-19T04:42:03.663Z,11.12
2023-11-19T04:44:30.986Z,11.08
2023-11-19T04:46:58.724Z,11.13
2023-11-19T04:49:28.573Z,11.18
2023-11-19T04:51:55.884Z,11.15
2023-11-19T04:54:22.905Z,11.31
2023-11-19T04:56:50.124Z,11.28
2023-11-19T04:59:17.346Z,11.28
2023-11-19T05:01:48.655Z,11.42
2023-11-19T05:04:16.513Z,11.35
2023-11-19T05:06:43.704Z,11.36
2023-11-19T05:09:10.844Z,11.38
2023-11-19T05:11:51.393Z,11.31
2023-11-19T05:14:21.262Z,11.24
2023-11-19T05:16:48.427Z,11.06
2023-11-19T05:19:15.779Z,10.96
2023-11-19T05:21:44.734Z,10.92
2023-11-19T05:24:13.242Z,10.96
2023-11-19T05:26:40.363Z,11.00
2023-11-19T05:29:07.501Z,11.20
2023-11-19T05:31:36.966Z,11.37
2023-11-19T05:34:05.511Z,11.44
2023-11-19T05:36:32.773Z,11.49
2023-11-19T05:38:59.872Z,11.22
2023-11-19T05:41:26.960Z,11.57
2023-11-19T05:43:54.007Z,11.58
2023-11-19T05:46:21.724Z,11.63
2023-11-19T05:48:49.555Z,11.14
2023-11-19T05:51:17.612Z,11.17
2023-11-19T05:53:47.042Z,11.10
2023-11-19T05:56:14.823Z,11.41
2023-11-19T05:58:41.994Z,10.85
2023-11-19T06:01:09.794Z,11.06
2023-11-19T06:03:38.198Z,11.30
2023-11-19T06:06:06.466Z,11.60
2023-11-19T06:08:34.029Z,11.56
2023-11-19T06:11:02.823Z,11.58
2023-11-19T06:13:32.669Z,11.10
2023-11-19T06:16:00.150Z,11.55
2023-11-19T06:18:27.603Z,11.50
2023-11-19T06:20:54.799Z,11.72
2023-11-19T06:23:21.896Z,11.41
2023-11-19T06:25:49.001Z,11.65
2023-11-19T06:28:16.367Z,11.77
2023-11-19T06:30:44.386Z,11.88
2023-11-19T06:33:15.669Z,12.00
2023-11-19T06:35:42.737Z,11.78
2023-11-19T06:38:09.829Z,11.48
2023-11-19T06:40:36.988Z,10.51
2023-11-19T06:43:05.479Z,11.45
2023-11-19T06:45:33.182Z,11.94
2023-11-19T06:48:04.514Z,11.57
2023-11-19T06:50:32.336Z,11.56
2023-11-19T06:52:59.771Z,11.75
2023-11-19T06:55:27.755Z,11.95
2023-11-19T06:57:54.904Z,11.21
2023-11-19T07:00:22.129Z,11.79
2023-11-19T07:02:49.575Z,11.51
2023-11-19T07:05:16.860Z,11.66
2023-11-19T07:07:44.010Z,11.79
2023-11-19T07:10:11.250Z,11.72
2023-11-19T07:12:38.529Z,11.37
2023-11-19T07:15:06.607Z,11.92
2023-11-19T07:17:33.785Z,12.15
2023-11-19T07:20:01.366Z,12.16
2023-11-19T07:22:30.923Z,11.56
2023-11-19T07:24:58.249Z,12.21
2023-11-19T07:27:25.683Z,11.89
2023-11-19T07:29:52.949Z,11.39
2023-11-19T07:32:20.180Z,11.45
2023-11-19T07:34:47.275Z,11.42
2023-11-19T07:37:14.392Z,11.29
2023-11-19T07:39:42.664Z,11.18
2023-11-19T07:42:10.876Z,11.71
2023-11-19T07:44:38.270Z,12.04
2023-11-19T07:47:05.669Z,12.39
2023-11-19T07:49:32.825Z,11.26
2023-11-19T07:52:00.215Z,11.70
2023-11-19T07:54:27.724Z,10.38
2023-11-19T07:56:54.905Z,11.09
2023-11-19T07:59:22.374Z,11.08
2023-11-19T08:01:49.596Z,11.85
2023-11-19T08:04:16.930Z,12.29
2023-11-19T08:06:44.019Z,12.44
2023-11-19T08:09:15.155Z,11.76
2023-11-19T08:11:42.961Z,11.75
2023-11-19T08:14:10.431Z,12.08
2023-11-19T08:16:39.057Z,12.04
2023-11-19T08:19:06.263Z,12.53
2023-11-19T08:21:33.573Z,11.51
2023-11-19T08:24:00.671Z,12.15
2023-11-19T08:26:27.835Z,12.01
2023-11-19T08:28:55.103Z,12.06
2023-11-19T08:31:22.734Z,11.54
2023-11-19T08:33:50.113Z,12.06
2023-11-19T08:36:18.371Z,12.71
2023-11-19T08:38:45.783Z,12.71
2023-11-19T08:41:13.133Z,12.50
2023-11-19T08:43:40.432Z,11.85
2023-11-19T08:46:12.070Z,12.30
2023-11-19T08:48:39.727Z,12.49
2023-11-19T08:51:07.026Z,12.17
2023-11-19T08:53:34.289Z,12.44
2023-11-19T08:56:01.833Z,11.85
2023-11-19T08:58:28.923Z,12.01
2023-11-19T09:00:56.213Z,12.36
2023-11-19T09:03:23.552Z,11.96
2023-11-19T09:05:50.727Z,12.08
2023-11-19T09:08:17.892Z,12.29
2023-11-19T09:10:44.927Z,12.07
2023-11-19T09:13:11.996Z,12.51
2023-11-19T09:15:39.257Z,12.61
2023-11-19T09:18:06.484Z,12.74
2023-11-19T09:20:39.319Z,11.82
2023-11-19T09:23:07.573Z,12.28
2023-11-19T09:28:05.143Z,12.90
2023-11-19T09:30:35.464Z,12.84
2023-11-19T09:33:03.119Z,12.99
2023-11-19T09:35:30.356Z,13.41
2023-11-19T09:37:57.640Z,12.97
2023-11-19T09:40:24.753Z,13.06
2023-11-19T09:42:51.860Z,13.73
2023-11-19T09:45:21.944Z,13.49
2023-11-19T09:47:49.230Z,13.76
2023-11-19T09:50:19.983Z,13.08
2023-11-19T09:52:50.017Z,12.56
2023-11-19T09:55:17.206Z,12.68
2023-11-19T09:57:45.257Z,13.03
2023-11-19T10:00:14.599Z,13.20
2023-11-19T10:02:41.937Z,13.13
2023-11-19T10:05:09.317Z,13.29
2023-11-19T10:07:36.442Z,13.45
2023-11-19T10:10:05.324Z,13.63
2023-11-19T10:12:32.370Z,13.57
2023-11-19T10:14:59.738Z,13.28
2023-11-19T10:17:36.115Z,13.24
2023-11-19T10:20:04.417Z,12.89
2023-11-19T10:22:31.679Z,13.11
2023-11-19T10:24:58.772Z,13.59
2023-11-19T10:27:27.103Z,13.86
2023-11-19T10:29:54.417Z,14.00
2023-11-19T10:32:25.792Z,14.14
2023-11-19T10:35:08.625Z,13.68
2023-11-19T10:37:38.820Z,13.86
2023-11-19T10:40:06.878Z,13.58
2023-11-19T10:42:34.026Z,13.69
2023-11-19T10:45:01.031Z,13.70
2023-11-19T10:49:59.952Z,13.08
2023-11-19T10:52:29.001Z,13.22
2023-11-19T10:54:56.126Z,13.59
2023-11-19T10:57:24.257Z,13.53
2023-11-19T10:59:53.784Z,13.86
2023-11-19T11:02:23.871Z,13.04
2023-11-19T11:04:50.890Z,13.62
2023-11-19T11:07:17.904Z,13.29
2023-11-19T11:09:45.148Z,13.51
2023-11-19T11:12:12.271Z,14.22
2023-11-19T11:14:41.540Z,13.71
2023-11-19T11:17:09.499Z,13.97
2023-11-19T11:19:37.197Z,13.99
2023-11-19T11:22:04.620Z,14.48
2023-11-19T11:25:07.573Z,14.23
2023-11-19T11:27:41.298Z,14.73
2023-11-19T11:30:26.463Z,13.55
2023-11-19T11:33:07.155Z,13.98
2023-11-19T11:36:03.164Z,13.80
2023-11-19T11:38:30.216Z,14.02
2023-11-19T11:41:16.500Z,13.63
2023-11-19T11:43:50.864Z,13.35
2023-11-19T11:46:33.130Z,12.99
2023-11-19T11:49:03.819Z,13.74
2023-11-19T11:51:46.749Z,13.90
2023-11-19T11:54:20.172Z,13.73
2023-11-19T11:59:46.289Z,13.75
2023-11-19T12:02:15.711Z,13.87
2023-11-19T12:04:43.269Z,14.37
2023-11-19T12:07:13.920Z,14.57
2023-11-19T12:09:47.069Z,14.96
2023-11-19T12:12:24.927Z,15.57
2023-11-19T12:15:07.962Z,14.99
2023-11-19T12:17:35.031Z,15.40
2023-11-19T12:20:02.901Z,15.35
2023-11-19T12:22:29.963Z,15.19
2023-11-19T12:24:57.502Z,15.43
2023-11-19T12:27:24.611Z,15.42
2023-11-19T12:29:51.853Z,15.41
2023-11-19T12:32:19.033Z,15.19
2023-11-19T12:34:46.392Z,14.98
2023-11-19T12:37:13.430Z,14.88
2023-11-19T12:39:41.552Z,15.21
2023-11-19T12:42:08.659Z,15.47
2023-11-19T12:44:35.772Z,14.81
2023-11-19T12:47:06.087Z,15.07
2023-11-19T12:49:34.225Z,15.23
2023-11-19T12:52:01.459Z,14.93
2023-11-19T12:54:35.998Z,14.89
2023-11-19T12:57:03.890Z,15.12
2023-11-19T12:59:31.474Z,15.57
2023-11-19T13:02:01.679Z,15.06
2023-11-19T13:04:29.645Z,15.33
2023-11-19T13:09:28.851Z,14.87
2023-11-19T13:11:57.329Z,14.86
2023-11-19T13:14:24.649Z,15.07
2023-11-19T13:16:51.805Z,14.51
2023-11-19T13:19:20.354Z,15.03
2023-11-19T13:21:50.574Z,14.73
2023-11-19T13:24:17.767Z,14.87
2023-11-19T13:26:44.841Z,15.07
2023-11-19T13:29:12.132Z,14.88
2023-11-19T13:31:39.712Z,13.96
2023-11-19T13:34:08.735Z,13.85
2023-11-19T13:36:36.054Z,13.77
2023-11-19T13:39:03.454Z,14.31
2023-11-19T13:41:30.632Z,15.03
2023-11-19T13:43:57.752Z,15.25
2023-11-19T13:46:24.955Z,14.15
2023-11-19T13:48:52.014Z,14.83
2023-11-19T13:51:19.109Z,14.64
2023-11-19T13:56:16.170Z,14.70
2023-11-19T13:58:43.264Z,14.28
2023-11-19T14:01:10.471Z,15.13
2023-11-19T14:03:37.755Z,14.96
2023-11-19T14:06:05.336Z,15.18
2023-11-19T14:08:32.514Z,15.51
2023-11-19T14:10:59.620Z,15.49
2023-11-19T14:13:26.727Z,15.54
2023-11-19T14:15:53.974Z,15.68
2023-11-19T14:18:21.099Z,16.09
2023-11-19T14:20:48.302Z,16.28
2023-11-19T14:23:15.387Z,15.60
2023-11-19T14:25:42.494Z,14.11
2023-11-19T14:28:09.619Z,14.97
2023-11-19T14:30:36.816Z,15.43
2023-11-19T14:33:05.210Z,15.29
2023-11-19T14:35:34.189Z,15.16
2023-11-19T14:38:01.557Z,14.97
2023-11-19T14:42:58.797Z,15.00
2023-11-19T14:45:25.916Z,15.18
2023-11-19T14:47:54.072Z,15.51
2023-11-19T14:50:21.232Z,15.12
2023-11-19T14:52:48.348Z,15.46
2023-11-19T14:55:15.516Z,15.43
2023-11-19T14:57:47.024Z,16.01
2023-11-19T15:00:16.995Z,15.76
2023-11-19T15:02:44.157Z,15.98
2023-11-19T15:05:11.395Z,16.37
2023-11-19T15:07:39.022Z,16.02
2023-11-19T15:10:11.022Z,16.48
2023-11-19T15:12:40.974Z,16.21
2023-11-19T15:15:15.059Z,16.07
2023-11-19T15:17:42.405Z,15.54
2023-11-19T15:20:10.083Z,15.92
2023-11-19T15:22:37.193Z,15.58
2023-11-19T15:25:04.579Z,15.81
2023-11-19T15:27:31.721Z,15.54
2023-11-19T15:29:59.700Z,15.49
2023-11-19T15:32:26.951Z,15.58
2023-11-19T15:34:54.128Z,15.14
2023-11-19T15:37:21.538Z,15.47
2023-11-19T15:39:48.951Z,15.01
2023-11-19T15:42:16.244Z,15.44
2023-11-19T15:44:44.336Z,14.75
2023-11-19T15:47:14.239Z,14.67
2023-11-19T15:49:41.541Z,15.11
2023-11-19T15:52:09.309Z,15.25
2023-11-19T15:54:36.756Z,14.79
2023-11-19T15:57:04.228Z,14.96
2023-11-19T15:59:32.601Z,15.20
2023-11-19T16:02:00.024Z,14.97
2023-11-19T16:04:27.264Z,15.26
2023-11-19T16:06:54.425Z,15.16
2023-11-19T16:09:23.501Z,14.87
2023-11-19T16:11:55.992Z,14.99
2023-11-19T16:14:25.606Z,15.34
2023-11-19T16:16:54.212Z,15.36
2023-11-19T16:19:21.519Z,15.19
2023-11-19T16:21:48.843Z,15.14
2023-11-19T16:24:16.475Z,15.36
2023-11-19T16:26:43.747Z,15.30
2023-11-19T16:29:11.760Z,15.34
2023-11-19T16:31:39.947Z,15.44
2023-11-19T16:34:07.173Z,15.30
2023-11-19T16:36:35.919Z,15.32
2023-11-19T16:41:39.923Z,15.55
2023-11-19T16:44:10.668Z,15.03
2023-11-19T16:46:38.504Z,15.17
2023-11-19T16:49:06.406Z,14.07
2023-11-19T16:51:33.799Z,13.98
2023-11-19T16:54:03.147Z,13.77
2023-11-19T16:56:34.340Z,13.13
2023-11-19T16:59:02.474Z,13.72
2023-11-19T17:01:30.114Z,13.96
2023-11-19T17:03:59.489Z,13.78
2023-11-19T17:06:27.241Z,13.94
2023-11-19T17:08:54.439Z,13.65
2023-11-19T17:11:22.359Z,13.21
2023-11-19T17:13:49.557Z,13.01
2023-11-19T17:16:17.292Z,13.35
2023-11-19T17:18:44.607Z,13.69
2023-11-19T17:21:11.909Z,13.61
2023-11-19T17:23:40.486Z,13.73
2023-11-19T17:26:07.849Z,13.03
2023-11-19T17:28:37.106Z,12.81
2023-11-19T17:31:04.592Z,13.51
2023-11-19T17:33:31.689Z,13.32
2023-11-19T17:35:59.027Z,12.72
2023-11-19T17:38:28.368Z,13.48
2023-11-19T17:40:58.439Z,12.79
2023-11-19T17:43:26.295Z,13.37
2023-11-19T17:45:58.150Z,13.41
2023-11-19T17:48:25.501Z,12.97
2023-11-19T17:50:56.534Z,12.83
2023-11-19T17:53:23.961Z,13.32
2023-11-19T17:55:51.088Z,13.60
2023-11-19T17:58:18.383Z,13.82
2023-11-19T18:00:45.511Z,13.15
2023-11-19T18:03:12.889Z,13.71
2023-11-19T18:05:43.348Z,13.68
2023-11-19T18:08:13.326Z,13.88
2023-11-19T18:10:40.447Z,13.78
2023-11-19T18:13:11.923Z,13.73
2023-11-19T18:15:40.046Z,13.24
2023-11-19T18:18:07.213Z,13.20
2023-11-19T18:20:34.405Z,13.62
2023-11-19T18:23:01.969Z,13.61
2023-11-19T18:25:29.259Z,13.33
2023-11-19T18:27:56.411Z,13.78
2023-11-19T18:30:24.901Z,14.18
2023-11-19T18:32:52.204Z,13.87
2023-11-19T18:35:25.147Z,13.83
2023-11-19T18:37:53.019Z,14.15
2023-11-19T18:40:22.540Z,14.31
2023-11-19T18:42:52.912Z,14.21
2023-11-19T18:45:23.295Z,14.34
2023-11-19T18:47:54.012Z,14.83
2023-11-19T18:50:22.325Z,14.88
2023-11-19T18:52:50.106Z,15.03
2023-11-19T18:55:17.238Z,14.62
2023-11-19T18:57:45.258Z,14.34
2023-11-19T19:00:12.735Z,14.49
2023-11-19T19:02:40.257Z,13.14
2023-11-19T19:05:07.934Z,12.97
2023-11-19T19:07:35.283Z,13.22
2023-11-19T19:10:03.633Z,13.65
2023-11-19T19:12:32.219Z,13.69
2023-11-19T19:17:31.451Z,13.82
2023-11-19T19:20:00.453Z,13.93
2023-11-19T19:22:28.927Z,13.78
2023-11-19T19:24:56.910Z,13.35
2023-11-19T19:27:24.154Z,13.63
2023-11-19T19:29:51.164Z,12.68
2023-11-19T19:32:18.552Z,12.83
2023-11-19T19:34:45.601Z,12.58
2023-11-19T19:37:12.767Z,13.06
2023-11-19T19:39:40.136Z,13.60
2023-11-19T19:42:09.641Z,12.59
2023-11-19T19:44:37.346Z,13.17
2023-11-19T19:47:04.777Z,13.25
2023-11-19T19:49:31.887Z,13.28
2023-11-19T19:51:59.189Z,12.83
2023-11-19T19:54:26.190Z,13.23
2023-11-19T19:56:53.981Z,12.63
2023-11-19T19:59:22.247Z,12.64
2023-11-19T20:01:53.056Z,12.42
2023-11-19T20:04:20.531Z,12.56
2023-11-19T20:06:49.315Z,12.96
2023-11-19T20:09:17.029Z,13.04
2023-11-19T20:11:48.211Z,13.37
2023-11-19T20:14:16.921Z,13.70
2023-11-19T20:16:44.090Z,12.79
2023-11-19T20:19:11.906Z,12.56
2023-11-19T20:21:39.121Z,12.05
2023-11-19T20:24:07.012Z,12.45
2023-11-19T20:26:35.735Z,12.45
2023-11-19T20:31:40.986Z,13.17
2023-11-19T20:34:08.981Z,13.13
2023-11-19T20:36:37.839Z,12.62
2023-11-19T20:39:05.280Z,12.60
2023-11-19T20:41:32.483Z,12.81
2023-11-19T20:43:59.723Z,13.22
2023-11-19T20:46:27.353Z,12.64
2023-11-19T20:48:54.766Z,12.44
2023-11-19T20:51:28.210Z,12.82
2023-11-19T20:53:59.934Z,13.28
2023-11-19T20:56:27.017Z,13.03
2023-11-19T20:58:55.113Z,12.41
2023-11-19T21:01:22.732Z,12.53
2023-11-19T21:03:49.872Z,12.16
2023-11-19T21:06:17.774Z,12.09
2023-11-19T21:08:44.836Z,13.36
2023-11-19T21:11:11.994Z,13.21
2023-11-19T21:13:39.488Z,13.31
2023-11-19T21:16:08.696Z,13.46
2023-11-19T21:18:36.908Z,13.51
2023-11-19T21:21:05.309Z,13.90
2023-11-19T21:23:32.705Z,13.26
2023-11-19T21:26:00.017Z,13.48
2023-11-19T21:28:31.160Z,12.55
2023-11-19T21:31:01.211Z,12.59
2023-11-19T21:33:28.869Z,11.15
2023-11-19T21:35:56.728Z,11.89
2023-11-19T21:38:23.811Z,12.63
2023-11-19T21:40:51.390Z,12.09
2023-11-19T21:43:21.807Z,12.09
2023-11-19T21:45:48.977Z,11.58
2023-11-19T21:48:16.121Z,12.44
2023-11-19T21:50:43.506Z,12.45
2023-11-19T21:53:10.665Z,12.14
2023-11-19T21:55:37.721Z,12.75
2023-11-19T21:58:05.425Z,12.42
2023-11-19T22:00:32.588Z,12.41
2023-11-19T22:02:59.982Z,12.08
2023-11-19T22:05:27.164Z,11.33
2023-11-19T22:07:54.373Z,11.63
2023-11-19T22:10:21.801Z,11.41
2023-11-19T22:12:48.982Z,10.82
2023-11-19T22:15:16.114Z,10.79
2023-11-19T22:17:43.239Z,10.64
2023-11-19T22:22:42.298Z,10.24
2023-11-19T22:25:11.260Z,9.89
2023-11-19T22:27:38.581Z,10.10
2023-11-19T22:30:06.394Z,10.18
2023-11-19T22:32:35.102Z,10.42
2023-11-19T22:35:02.391Z,10.74
2023-11-19T22:37:29.991Z,10.27
2023-11-19T22:39:57.458Z,9.94
2023-11-19T22:42:24.802Z,10.39
2023-11-19T22:44:51.947Z,10.14
2023-11-19T22:47:19.045Z,9.96
2023-11-19T22:49:46.118Z,9.49
2023-11-19T22:52:13.593Z,9.38
2023-11-19T22:54:40.877Z,9.56
2023-11-19T22:57:07.996Z,10.25
2023-11-19T22:59:35.147Z,11.05
